Terminal Aerodrome Forecast
Issued by NWS La Crosse, WI

Home | Current Version | Previous Version | Text Only | Print | Product List | Glossary On
Versions: 1 2 3 4 5 6 7 8 9 10 11 12 13 14 15 16 17 18 19 20 21 22 23 24 25 26 27 28
998
FTUS43 KARX 200533
TAFRST
TAF
KRST 200533Z 2006/2106 15013KT P6SM BKN150
     FM201500 15013KT 3SM -SHRA BR OVC020
     FM201700 17015G25KT 1 1/2SM SHRA BR OVC008
     FM210000 23012KT P6SM OVC015
     FM210400 27011KT P6SM SCT040=

USA.gov is the U.S. government's official web portal to all federal, state and local government web resources and services.